Time;durP1;ratioP1;P1;durP2;ratioP2;P2;SDS_P1;SDS_P2;PMS_P1;PMS_P2;Temp;Humidity;BMP_temperature;BMP_pressure;BME280_temperature;BME280_humidity;BME280_pressure;Samples;Min_cycle;Max_cycle;Signal;HPM_P1;HPM_P2
2022/03/15 00:02:15;;;;;;;;;;;;;;;-3.40;57.75;100507.50;4889639;29;19927;-71
2022/03/15 00:04:41;;;;;;;;;;;;;;;-3.38;57.66;100508.22;4897986;29;19935;-72
2022/03/15 00:07:16;;;;;;;;;;;;;;;-3.38;58.31;100509.97;4904231;29;19931;-71
2022/03/15 00:09:42;;;;;;;;;;;;;;;-3.44;57.50;100519.88;4916862;29;19930;-71
2022/03/15 00:12:09;;;;;;;;;;;;;;;-3.44;57.47;100517.28;4918029;29;19970;-72
2022/03/15 00:14:36;;;;;;;;;;;;;;;-3.47;58.41;100516.69;4916741;29;19934;-72
2022/03/15 00:17:04;;;;;;;;;;;;;;;-3.52;58.27;100517.06;4916093;29;20301;-71
2022/03/15 00:19:29;;;;;;;;;;;;;;;-3.55;58.40;100524.25;4918138;29;20393;-71
2022/03/15 00:21:55;;;;;;;;;;;;;;;-3.57;59.09;100520.94;4900976;29;19978;-71
2022/03/15 00:24:22;;;;;;;;;;;;;;;-3.58;58.73;100529.69;4916722;29;19973;-73
2022/03/15 00:26:48;;;;;;;;;;;;;;;-3.61;59.55;100533.31;4917989;29;19931;-70
2022/03/15 00:29:16;;;;;;;;;;;;;;;-3.63;58.95;100535.19;4916618;29;19943;-77
2022/03/15 00:31:44;;;;;;;;;;;;;;;-3.62;59.54;100531.66;4884876;29;19932;-75
2022/03/15 00:34:10;;;;;;;;;;;;;;;-3.63;59.37;100542.16;4901185;29;19927;-71
2022/03/15 00:36:37;;;;;;;;;;;;;;;-3.66;59.55;100538.03;4917091;29;19938;-72
2022/03/15 00:39:06;;;;;;;;;;;;;;;-3.70;60.22;100541.81;4917579;29;19934;-72
2022/03/15 00:41:31;;;;;;;;;;;;;;;-3.77;60.20;100538.00;4916247;29;19954;-72
2022/03/15 00:43:57;;;;;;;;;;;;;;;-3.76;59.61;100542.28;4916744;29;19927;-73
2022/03/15 00:46:23;;;;;;;;;;;;;;;-3.77;59.84;100553.56;4917346;29;19949;-72
2022/03/15 00:48:48;;;;;;;;;;;;;;;-3.80;59.86;100546.03;4916155;29;19970;-72
2022/03/15 00:51:14;;;;;;;;;;;;;;;-3.84;59.46;100548.03;4896696;29;20352;-73
2022/03/15 00:53:40;;;;;;;;;;;;;;;-3.88;60.17;100547.44;4897360;29;19927;-73
2022/03/15 00:56:06;;;;;;;;;;;;;;;-3.91;59.52;100558.03;4898151;29;19942;-73
2022/03/15 00:58:31;;;;;;;;;;;;;;;-3.93;60.43;100556.50;4897283;29;20428;-74
2022/03/15 01:00:58;;;;;;;;;;;;;;;-3.93;59.03;100564.28;4896839;29;19939;-73
2022/03/15 01:03:23;;;;;;;;;;;;;;;-3.94;60.37;100560.84;4898603;29;19927;-73
2022/03/15 01:05:50;;;;;;;;;;;;;;;-3.95;59.28;100566.97;4909574;29;20349;-73
2022/03/15 01:08:16;;;;;;;;;;;;;;;-3.98;59.61;100574.97;4898395;29;19928;-73
2022/03/15 01:10:42;;;;;;;;;;;;;;;-4.00;59.19;100566.50;4898335;29;20412;-73
2022/03/15 01:13:08;;;;;;;;;;;;;;;-4.08;59.58;100563.66;4897136;29;19927;-74
2022/03/15 01:15:42;;;;;;;;;;;;;;;-4.07;60.41;100567.88;4908958;29;20313;-73
2022/03/15 01:18:08;;;;;;;;;;;;;;;-4.13;59.26;100566.56;4911088;29;20017;-71
2022/03/15 01:20:34;;;;;;;;;;;;;;;-4.14;58.75;100567.50;4915761;29;20431;-71
2022/03/15 01:23:00;;;;;;;;;;;;;;;-4.12;58.89;100570.81;4914934;29;20389;-75
2022/03/15 01:25:26;;;;;;;;;;;;;;;-4.13;59.40;100576.09;4884512;29;20401;-75
2022/03/15 01:27:52;;;;;;;;;;;;;;;-4.17;58.96;100574.69;4916317;29;20341;-74
2022/03/15 01:30:18;;;;;;;;;;;;;;;-4.20;58.89;100582.69;4899783;29;19932;-68
2022/03/15 01:32:43;;;;;;;;;;;;;;;-4.22;58.36;100589.72;4884565;29;19928;-68
2022/03/15 01:35:09;;;;;;;;;;;;;;;-4.23;58.61;100586.31;4880900;29;20345;-69
2022/03/15 01:37:35;;;;;;;;;;;;;;;-4.28;58.83;100588.41;4910695;29;19949;-68
2022/03/15 01:40:08;;;;;;;;;;;;;;;-4.28;58.45;100578.06;4884831;29;20397;-68
2022/03/15 01:42:37;;;;;;;;;;;;;;;-4.29;58.21;100593.69;4885534;29;19927;-68
2022/03/15 01:45:03;;;;;;;;;;;;;;;-4.31;58.58;100591.22;4896958;29;19938;-68
2022/03/15 01:47:31;;;;;;;;;;;;;;;-4.30;58.18;100585.09;4898857;29;20071;-68
2022/03/15 01:49:57;;;;;;;;;;;;;;;-4.30;58.07;100585.09;4899474;29;19931;-70
2022/03/15 01:52:23;;;;;;;;;;;;;;;-4.35;57.96;100589.81;4904037;29;19983;-70
2022/03/15 01:54:48;;;;;;;;;;;;;;;-4.39;57.56;100596.94;4896239;29;19931;-68
2022/03/15 01:57:18;;;;;;;;;;;;;;;-4.39;57.56;100596.13;4886718;29;20409;-69
2022/03/15 01:59:44;;;;;;;;;;;;;;;-4.41;57.75;100592.81;4896179;29;19927;-69
2022/03/15 02:02:10;;;;;;;;;;;;;;;-4.44;58.11;100604.25;4906700;29;19923;-70
2022/03/15 02:04:36;;;;;;;;;;;;;;;-4.46;57.06;100606.13;4915051;29;19955;-70
2022/03/15 02:07:03;;;;;;;;;;;;;;;-4.47;57.28;100606.22;4915873;29;20405;-74
2022/03/15 02:09:30;;;;;;;;;;;;;;;-4.47;57.85;100608.78;4913944;29;19927;-74
2022/03/15 02:11:57;;;;;;;;;;;;;;;-4.47;57.43;100614.81;4914669;29;19934;-75
2022/03/15 02:14:23;;;;;;;;;;;;;;;-4.50;56.52;100616.78;4916030;29;19943;-72
2022/03/15 02:16:48;;;;;;;;;;;;;;;-4.55;57.58;100617.13;4915620;29;19931;-73
2022/03/15 02:19:14;;;;;;;;;;;;;;;-4.59;56.84;100620.84;4916205;29;20458;-73
2022/03/15 02:21:39;;;;;;;;;;;;;;;-4.63;56.19;100622.84;4915799;29;19931;-75
2022/03/15 02:24:06;;;;;;;;;;;;;;;-4.64;56.88;100622.97;4898953;29;20401;-75
2022/03/15 02:26:32;;;;;;;;;;;;;;;-4.66;56.50;100617.88;4913615;29;20010;-70
2022/03/15 02:28:57;;;;;;;;;;;;;;;-4.66;56.30;100624.81;4915978;29;20388;-63
2022/03/15 02:31:24;;;;;;;;;;;;;;;-4.68;56.00;100622.34;4909821;29;20302;-72
2022/03/15 02:33:49;;;;;;;;;;;;;;;-4.73;56.20;100621.84;4914535;29;20309;-70
2022/03/15 02:36:16;;;;;;;;;;;;;;;-4.78;56.22;100631.69;4915186;29;20102;-70
2022/03/15 02:38:42;;;;;;;;;;;;;;;-4.77;56.63;100624.75;4896825;29;20441;-67
2022/03/15 02:41:08;;;;;;;;;;;;;;;-4.74;56.95;100627.13;4896477;29;20330;-67
2022/03/15 02:43:33;;;;;;;;;;;;;;;-5.07;55.71;100577.66;4895711;29;19935;-70
2022/03/15 02:45:59;;;;;;;;;;;;;;;-4.76;56.35;100634.16;4896388;29;20326;-68
2022/03/15 02:48:25;;;;;;;;;;;;;;;-4.80;56.64;100630.97;4913568;29;19934;-70
2022/03/15 02:50:50;;;;;;;;;;;;;;;-4.83;56.49;100642.34;4913914;29;20003;-69
2022/03/15 02:53:19;;;;;;;;;;;;;;;-4.89;56.39;100644.56;4898530;29;20348;-74
2022/03/15 02:55:47;;;;;;;;;;;;;;;-4.88;56.52;100643.59;4900181;29;20439;-74
2022/03/15 02:58:12;;;;;;;;;;;;;;;-4.93;56.33;100643.13;4919227;29;20396;-72
2022/03/15 03:00:38;;;;;;;;;;;;;;;-4.90;56.38;100646.31;4919376;29;19937;-71
2022/03/15 03:03:04;;;;;;;;;;;;;;;-4.92;56.15;100653.34;4919143;29;20342;-69
2022/03/15 03:05:30;;;;;;;;;;;;;;;-4.91;56.18;100657.59;4918945;29;19931;-70
2022/03/15 03:07:55;;;;;;;;;;;;;;;-4.93;56.06;100653.47;4917664;29;20309;-69
2022/03/15 03:10:21;;;;;;;;;;;;;;;-4.94;56.23;100655.22;4919164;29;19931;-70
2022/03/15 03:12:48;;;;;;;;;;;;;;;-4.94;55.90;100660.41;4918671;29;19977;-70
2022/03/15 03:15:14;;;;;;;;;;;;;;;-4.97;55.92;100662.34;4901903;29;19974;-69
2022/03/15 03:17:42;;;;;;;;;;;;;;;-5.00;55.99;100668.56;4918792;29;19927;-73
2022/03/15 03:20:12;;;;;;;;;;;;;;;-5.03;55.55;100667.03;4916187;29;19977;-71
2022/03/15 03:22:39;;;;;;;;;;;;;;;-5.07;56.10;100663.00;4908108;29;20459;-69
2022/03/15 03:25:05;;;;;;;;;;;;;;;-5.08;55.85;100665.69;4883152;29;19971;-70
2022/03/15 03:27:31;;;;;;;;;;;;;;;-5.11;56.21;100668.50;4898687;29;19927;-71
2022/03/15 03:29:58;;;;;;;;;;;;;;;-5.13;56.31;100678.09;4898676;29;19939;-71
2022/03/15 03:32:27;;;;;;;;;;;;;;;-5.13;55.99;100676.34;4898495;29;20060;-69
2022/03/15 03:34:53;;;;;;;;;;;;;;;-5.15;55.74;100674.78;4898619;29;19931;-71
2022/03/15 03:37:19;;;;;;;;;;;;;;;-5.19;56.13;100683.69;4899990;29;19931;-69
2022/03/15 03:39:44;;;;;;;;;;;;;;;-5.19;55.66;100684.50;4899872;29;20002;-69
2022/03/15 03:42:10;;;;;;;;;;;;;;;-5.22;55.87;100676.97;4898794;29;19923;-74
2022/03/15 03:44:36;;;;;;;;;;;;;;;-5.23;56.38;100687.44;4867312;29;19934;-71
2022/03/15 03:47:02;;;;;;;;;;;;;;;-5.23;56.18;100698.59;4906500;29;19954;-72
2022/03/15 03:49:30;;;;;;;;;;;;;;;-5.19;56.09;100699.22;4898012;29;19973;-72
2022/03/15 03:51:56;;;;;;;;;;;;;;;-5.11;56.02;100694.34;4872596;29;20437;-71
2022/03/15 03:54:23;;;;;;;;;;;;;;;-5.03;55.17;100703.25;4873274;29;19931;-72
2022/03/15 03:56:49;;;;;;;;;;;;;;;-4.89;54.88;100701.44;4893452;29;20341;-70
2022/03/15 03:59:14;;;;;;;;;;;;;;;-4.85;55.62;100695.97;4899419;29;20018;-70
2022/03/15 04:01:42;;;;;;;;;;;;;;;-4.75;55.17;100698.75;4899457;29;19963;-71
2022/03/15 04:04:07;;;;;;;;;;;;;;;-4.65;54.82;100709.25;4898219;29;20022;-71
2022/03/15 04:06:33;;;;;;;;;;;;;;;-4.58;54.22;100705.34;4888344;29;19945;-67
2022/03/15 04:08:59;;;;;;;;;;;;;;;-4.53;54.08;100710.16;4899478;29;20022;-70
2022/03/15 04:11:25;;;;;;;;;;;;;;;-4.52;54.10;100707.50;4913094;29;19927;-72
2022/03/15 04:13:51;;;;;;;;;;;;;;;-4.42;53.76;100713.66;4917062;29;19978;-72
2022/03/15 04:16:17;;;;;;;;;;;;;;;-4.41;52.99;100720.50;4917819;29;19931;-69
2022/03/15 04:18:43;;;;;;;;;;;;;;;-4.38;53.84;100715.09;4917662;29;19930;-71
2022/03/15 04:21:09;;;;;;;;;;;;;;;-4.25;53.75;100722.00;4916567;29;19927;-72
2022/03/15 04:23:34;;;;;;;;;;;;;;;-4.24;53.46;100716.69;4917821;29;20096;-72
2022/03/15 04:26:00;;;;;;;;;;;;;;;-4.21;52.98;100726.00;4917145;29;20377;-69
2022/03/15 04:28:26;;;;;;;;;;;;;;;-4.26;53.04;100717.78;4918241;29;20317;-70
2022/03/15 04:30:54;;;;;;;;;;;;;;;-4.24;53.43;100721.06;4917763;29;19930;-70
2022/03/15 04:33:19;;;;;;;;;;;;;;;-4.22;52.81;100724.38;4917355;29;19931;-62
2022/03/15 04:35:45;;;;;;;;;;;;;;;-4.23;53.28;100720.13;4916176;29;20017;-65
2022/03/15 04:38:11;;;;;;;;;;;;;;;-4.19;53.07;100724.97;4899435;29;19932;-62
2022/03/15 04:40:37;;;;;;;;;;;;;;;-4.24;53.29;100721.06;4898792;29;19966;-62
2022/03/15 04:43:03;;;;;;;;;;;;;;;-4.29;53.59;100720.53;4907484;29;19997;-61
2022/03/15 04:45:29;;;;;;;;;;;;;;;-4.40;53.17;100729.91;4899913;29;19934;-61
2022/03/15 04:47:54;;;;;;;;;;;;;;;-4.29;53.66;100736.94;4901167;29;19932;-61
2022/03/15 04:50:20;;;;;;;;;;;;;;;-4.26;52.90;100735.91;4898338;29;19983;-62
2022/03/15 04:52:45;;;;;;;;;;;;;;;-4.24;53.57;100731.41;4898535;29;19931;-62
2022/03/15 04:55:11;;;;;;;;;;;;;;;-4.23;53.52;100743.44;4910693;29;19927;-64
2022/03/15 04:57:37;;;;;;;;;;;;;;;-4.19;53.06;100744.88;4900337;29;19937;-61
2022/03/15 05:00:06;;;;;;;;;;;;;;;-4.24;53.55;100752.94;4915936;29;19927;-64
2022/03/15 05:02:33;;;;;;;;;;;;;;;-4.19;53.43;100745.69;4915792;29;20329;-63
2022/03/15 05:05:04;;;;;;;;;;;;;;;-4.25;52.98;100747.88;4915180;29;19934;-63
2022/03/15 05:07:30;;;;;;;;;;;;;;;-4.28;53.22;100750.69;4916752;29;19931;-65
2022/03/15 05:12:40;;;;;;;;;;;;;;;-4.14;52.69;100745.38;4916875;29;19935;-63
2022/03/15 05:15:06;;;;;;;;;;;;;;;-4.13;53.80;100755.59;4916590;29;20349;-63
2022/03/15 05:17:31;;;;;;;;;;;;;;;-4.05;53.29;100752.47;4915318;29;19983;-63
2022/03/15 05:19:57;;;;;;;;;;;;;;;-4.02;52.94;100760.03;4916850;29;19934;-65
2022/03/15 05:22:23;;;;;;;;;;;;;;;-4.00;53.29;100753.00;4909081;29;19931;-64
2022/03/15 05:24:48;;;;;;;;;;;;;;;-3.95;53.80;100766.41;4883326;29;19927;-63
2022/03/15 05:27:16;;;;;;;;;;;;;;;-4.00;52.96;100760.75;4904209;29;20017;-64
2022/03/15 05:29:42;;;;;;;;;;;;;;;-3.95;53.60;100766.41;4896378;29;19994;-64
2022/03/15 05:32:08;;;;;;;;;;;;;;;-3.89;52.86;100762.56;4897651;29;19987;-63
2022/03/15 05:34:33;;;;;;;;;;;;;;;-3.78;52.97;100772.16;4880896;29;19927;-62
2022/03/15 05:36:59;;;;;;;;;;;;;;;-3.71;52.54;100768.16;4897421;29;20021;-65
2022/03/15 05:39:25;;;;;;;;;;;;;;;-3.72;53.07;100769.13;4896690;29;20013;-65
2022/03/15 05:41:50;;;;;;;;;;;;;;;-3.62;53.23;100774.44;4903198;29;20393;-63
2022/03/15 05:44:16;;;;;;;;;;;;;;;-3.53;52.59;100774.63;4901348;29;19928;-64
2022/03/15 05:46:41;;;;;;;;;;;;;;;-3.50;52.72;100777.00;4891769;29;19959;-63
2022/03/15 05:49:07;;;;;;;;;;;;;;;-3.37;52.90;100784.69;4914997;29;20411;-63
2022/03/15 05:51:33;;;;;;;;;;;;;;;-3.33;52.39;100783.50;4909565;29;20416;-64
2022/03/15 05:53:59;;;;;;;;;;;;;;;-3.35;53.05;100782.81;4897209;29;20373;-64
2022/03/15 05:56:24;;;;;;;;;;;;;;;-3.31;52.82;100793.78;4895934;29;19927;-63
2022/03/15 05:58:50;;;;;;;;;;;;;;;-3.32;53.12;100797.31;4910341;29;19931;-64
2022/03/15 06:01:16;;;;;;;;;;;;;;;-3.29;52.46;100789.31;4895630;29;19927;-65
2022/03/15 06:03:42;;;;;;;;;;;;;;;-3.20;52.83;100799.81;4887733;29;19942;-66
2022/03/15 06:06:08;;;;;;;;;;;;;;;-3.07;52.58;100801.50;4915707;29;19934;-61
2022/03/15 06:08:33;;;;;;;;;;;;;;;-3.06;52.26;100806.59;4914282;29;19931;-61
2022/03/15 06:11:02;;;;;;;;;;;;;;;-3.01;52.42;100803.63;4871892;29;20330;-63
2022/03/15 06:13:29;;;;;;;;;;;;;;;-2.88;52.17;100813.91;4906625;29;19934;-65
2022/03/15 06:15:55;;;;;;;;;;;;;;;-2.82;52.01;100813.47;4892748;29;20323;-61
2022/03/15 06:18:20;;;;;;;;;;;;;;;-2.75;52.10;100814.66;4903260;29;19931;-62
2022/03/15 06:20:46;;;;;;;;;;;;;;;-2.78;51.60;100820.91;4904714;29;19975;-63
2022/03/15 06:23:12;;;;;;;;;;;;;;;-2.75;51.69;100815.47;4910037;29;20401;-63
2022/03/15 06:25:38;;;;;;;;;;;;;;;-2.71;51.65;100820.44;4905359;29;20018;-62
2022/03/15 06:28:03;;;;;;;;;;;;;;;-2.63;52.18;100812.88;4909544;29;19931;-63
2022/03/15 06:30:29;;;;;;;;;;;;;;;-2.62;52.08;100822.31;4913876;29;19927;-62
2022/03/15 06:32:56;;;;;;;;;;;;;;;-2.57;51.58;100815.84;4913151;29;19986;-61
2022/03/15 06:35:21;;;;;;;;;;;;;;;-2.43;51.59;100816.56;4906866;29;19933;-62
2022/03/15 06:37:48;;;;;;;;;;;;;;;-2.48;51.78;100819.50;4895770;29;19932;-63
2022/03/15 06:40:14;;;;;;;;;;;;;;;-2.53;52.12;100811.22;4905758;29;20025;-62
2022/03/15 06:42:40;;;;;;;;;;;;;;;-2.49;51.94;100815.25;4901771;29;19979;-63
2022/03/15 06:45:06;;;;;;;;;;;;;;;-2.41;51.87;100810.31;4902340;29;20342;-64
2022/03/15 06:47:32;;;;;;;;;;;;;;;-2.41;52.11;100806.84;4910021;29;20019;-61
2022/03/15 06:49:58;;;;;;;;;;;;;;;-2.39;52.21;100805.81;4906199;29;20025;-62
2022/03/15 06:52:24;;;;;;;;;;;;;;;-2.42;52.09;100810.41;4903503;29;20316;-63
2022/03/15 06:54:50;;;;;;;;;;;;;;;-2.39;52.26;100812.78;4905507;29;20018;-62
2022/03/15 06:57:16;;;;;;;;;;;;;;;-2.33;52.22;100810.50;4906250;29;19974;-63
2022/03/15 06:59:42;;;;;;;;;;;;;;;-2.27;51.88;100819.59;4871197;29;19994;-62
2022/03/15 07:02:08;;;;;;;;;;;;;;;-2.18;51.43;100803.31;4871631;29;20239;-61
2022/03/15 07:04:34;;;;;;;;;;;;;;;-2.13;51.46;100810.75;4900662;29;19966;-62
2022/03/15 07:06:59;;;;;;;;;;;;;;;-2.08;51.43;100808.63;4903160;29;19927;-64
2022/03/15 07:09:25;;;;;;;;;;;;;;;-1.99;50.77;100813.09;4899584;29;20263;-62
2022/03/15 07:11:51;;;;;;;;;;;;;;;-1.92;50.50;100813.41;4906000;29;19959;-64
2022/03/15 07:14:17;;;;;;;;;;;;;;;-1.80;50.67;100819.41;4910205;29;20333;-61
2022/03/15 07:16:43;;;;;;;;;;;;;;;-1.76;50.48;100813.88;4909270;29;19927;-64
2022/03/15 07:19:08;;;;;;;;;;;;;;;-1.79;50.31;100816.72;4913602;29;19966;-61
2022/03/15 07:21:34;;;;;;;;;;;;;;;-1.77;50.15;100820.00;4910763;29;19927;-63
2022/03/15 07:23:59;;;;;;;;;;;;;;;-1.59;49.69;100825.50;4910180;29;19978;-62
2022/03/15 07:26:25;;;;;;;;;;;;;;;-1.52;49.55;100818.88;4910618;29;20333;-63
2022/03/15 07:28:51;;;;;;;;;;;;;;;-1.46;48.88;100826.16;4913271;29;19927;-63
2022/03/15 07:31:16;;;;;;;;;;;;;;;-1.48;49.29;100815.06;4911643;29;19990;-62
2022/03/15 07:33:42;;;;;;;;;;;;;;;-1.48;48.58;100817.66;4913041;29;19982;-61
2022/03/15 07:36:08;;;;;;;;;;;;;;;-1.44;49.00;100818.22;4914234;29;19927;-60
2022/03/15 07:38:33;;;;;;;;;;;;;;;-1.33;48.66;100815.56;4914176;29;19965;-61
2022/03/15 07:41:01;;;;;;;;;;;;;;;-1.31;48.94;100821.50;4905813;29;19927;-60
2022/03/15 07:43:27;;;;;;;;;;;;;;;-1.22;48.72;100823.34;4906628;29;20304;-62
2022/03/15 07:45:53;;;;;;;;;;;;;;;-1.18;47.42;100819.56;4911193;29;19943;-62
2022/03/15 07:48:19;;;;;;;;;;;;;;;-1.20;47.80;100821.44;4883913;29;19938;-62
2022/03/15 07:50:45;;;;;;;;;;;;;;;-1.16;47.49;100815.03;4915045;29;19970;-62
2022/03/15 07:53:10;;;;;;;;;;;;;;;-1.15;47.36;100821.91;4912352;29;20584;-61
2022/03/15 07:55:36;;;;;;;;;;;;;;;-1.15;47.92;100814.09;4915962;29;19934;-60
2022/03/15 07:58:02;;;;;;;;;;;;;;;-1.07;46.39;100826.44;4916216;29;19937;-61
2022/03/15 08:00:27;;;;;;;;;;;;;;;-1.01;46.41;100830.31;4915718;29;20440;-62
2022/03/15 08:02:53;;;;;;;;;;;;;;;-0.94;46.22;100823.69;4915842;29;19931;-61
2022/03/15 08:05:19;;;;;;;;;;;;;;;-0.92;46.75;100830.38;4915873;29;19934;-60
2022/03/15 08:07:45;;;;;;;;;;;;;;;-0.83;45.96;100823.59;4897168;29;20451;-63
2022/03/15 08:10:10;;;;;;;;;;;;;;;-0.75;46.09;100842.00;4895213;29;19928;-61
2022/03/15 08:12:37;;;;;;;;;;;;;;;-0.78;45.62;100825.81;4895573;29;19939;-60
2022/03/15 08:15:03;;;;;;;;;;;;;;;-0.76;45.46;100823.91;4893831;29;19946;-62
2022/03/15 08:17:29;;;;;;;;;;;;;;;-0.75;45.62;100828.16;4894540;29;19978;-60
2022/03/15 08:19:56;;;;;;;;;;;;;;;-0.68;44.78;100826.69;4896860;29;19927;-62
2022/03/15 08:22:23;;;;;;;;;;;;;;;-0.62;45.04;100820.13;4912745;29;19935;-61
2022/03/15 08:24:49;;;;;;;;;;;;;;;-0.65;44.79;100808.19;4912764;29;19970;-61
2022/03/15 08:27:14;;;;;;;;;;;;;;;-0.66;44.90;100819.56;4910002;29;20013;-62
2022/03/15 08:29:40;;;;;;;;;;;;;;;-0.60;44.82;100821.66;4901292;29;19931;-62
2022/03/15 08:32:06;;;;;;;;;;;;;;;-0.55;44.76;100809.06;4894821;29;19992;-61
2022/03/15 08:34:32;;;;;;;;;;;;;;;-0.57;44.86;100816.19;4894273;29;19927;-61
2022/03/15 08:36:58;;;;;;;;;;;;;;;-0.54;44.58;100817.72;4895075;29;20398;-62
2022/03/15 08:39:24;;;;;;;;;;;;;;;-0.48;43.94;100818.00;4894310;29;20018;-63
2022/03/15 08:41:53;;;;;;;;;;;;;;;-0.42;43.75;100802.81;4896204;29;19938;-61
2022/03/15 08:44:19;;;;;;;;;;;;;;;-0.48;43.66;100818.00;4879093;29;20317;-59
2022/03/15 08:46:46;;;;;;;;;;;;;;;-0.43;43.35;100819.41;4894984;29;19934;-61
2022/03/15 08:49:14;;;;;;;;;;;;;;;-0.43;43.40;100804.59;4894630;29;19927;-64
2022/03/15 08:51:41;;;;;;;;;;;;;;;-0.34;43.81;100803.81;4900980;29;19927;-64
2022/03/15 08:54:06;;;;;;;;;;;;;;;-0.32;43.64;100807.13;4912559;29;20564;-62
2022/03/15 08:56:32;;;;;;;;;;;;;;;-0.24;43.16;100822.06;4914943;29;19931;-63
2022/03/15 08:58:57;;;;;;;;;;;;;;;-0.22;43.37;100814.13;4913795;29;20397;-65
2022/03/15 09:01:23;;;;;;;;;;;;;;;-0.14;43.47;100806.50;4915478;29;20242;-62
2022/03/15 09:03:48;;;;;;;;;;;;;;;-0.11;42.50;100806.22;4916172;29;19931;-63
2022/03/15 09:06:14;;;;;;;;;;;;;;;-0.08;41.49;100806.78;4913207;29;20397;-61
2022/03/15 09:08:39;;;;;;;;;;;;;;;-0.05;42.52;100810.91;4912020;29;19978;-61
2022/03/15 09:11:05;;;;;;;;;;;;;;;-0.04;42.58;100809.94;4913242;29;19927;-61
2022/03/15 09:13:32;;;;;;;;;;;;;;;-0.02;42.63;100806.22;4912050;29;19927;-61
2022/03/15 09:15:58;;;;;;;;;;;;;;;-0.11;42.95;100801.00;4915396;29;19927;-62
2022/03/15 09:18:26;;;;;;;;;;;;;;;-0.08;42.90;100806.78;4911393;29;19931;-60
2022/03/15 09:20:51;;;;;;;;;;;;;;;0.04;42.26;100797.06;4895447;29;19928;-61
2022/03/15 09:23:17;;;;;;;;;;;;;;;0.10;41.98;100796.50;4895402;29;19932;-64
2022/03/15 09:25:43;;;;;;;;;;;;;;;0.19;41.41;100808.75;4897185;29;20034;-63
2022/03/15 09:28:10;;;;;;;;;;;;;;;0.23;41.19;100809.28;4896812;29;19932;-62
2022/03/15 09:30:37;;;;;;;;;;;;;;;0.18;41.06;100804.50;4896966;29;19928;-62
2022/03/15 09:33:03;;;;;;;;;;;;;;;0.30;41.96;100804.38;4895375;29;19931;-62
2022/03/15 09:35:28;;;;;;;;;;;;;;;0.37;42.03;100803.69;4894851;29;20023;-61
2022/03/15 09:37:54;;;;;;;;;;;;;;;0.34;42.08;100803.13;4895012;29;19959;-62
2022/03/15 09:40:23;;;;;;;;;;;;;;;0.30;41.73;100799.16;4892962;29;19934;-61
2022/03/15 09:42:50;;;;;;;;;;;;;;;0.33;42.71;100815.34;4877568;29;19938;-63
2022/03/15 09:45:16;;;;;;;;;;;;;;;0.28;43.66;100798.47;4914257;29;19927;-62
2022/03/15 09:47:42;;;;;;;;;;;;;;;0.35;43.69;100802.97;4913262;29;20440;-62
2022/03/15 09:50:07;;;;;;;;;;;;;;;0.52;43.16;100809.31;4893831;29;19927;-62
2022/03/15 09:52:34;;;;;;;;;;;;;;;0.66;42.59;100805.47;4912001;29;19953;-61
2022/03/15 09:55:00;;;;;;;;;;;;;;;0.85;42.33;100802.00;4913866;29;19927;-61
2022/03/15 09:57:27;;;;;;;;;;;;;;;1.01;41.87;100798.84;4914541;29;19931;-63
2022/03/15 09:59:52;;;;;;;;;;;;;;;1.04;42.08;100788.94;4908345;29;19928;-62
2022/03/15 10:02:18;;;;;;;;;;;;;;;0.97;41.76;100803.53;4906427;29;20445;-63
2022/03/15 10:04:44;;;;;;;;;;;;;;;0.66;41.87;100811.50;4896528;29;20026;-63
2022/03/15 10:07:10;;;;;;;;;;;;;;;0.79;41.84;100807.78;4900079;29;20030;-64
2022/03/15 10:09:36;;;;;;;;;;;;;;;0.92;41.62;100804.91;4892737;29;19974;-63
2022/03/15 10:12:02;;;;;;;;;;;;;;;0.90;41.68;100812.88;4898966;29;19962;-62
2022/03/15 10:14:28;;;;;;;;;;;;;;;0.68;42.28;100817.41;4893888;29;19927;-63
2022/03/15 10:16:59;;;;;;;;;;;;;;;0.79;42.18;100816.44;4899395;29;19931;-60
2022/03/15 10:19:25;;;;;;;;;;;;;;;0.84;41.87;100813.41;4894488;29;19935;-63
2022/03/15 10:21:52;;;;;;;;;;;;;;;1.01;40.82;100806.66;4874749;29;19932;-62
2022/03/15 10:24:27;;;;;;;;;;;;;;;1.14;41.56;100802.78;4876575;29;19934;-63
2022/03/15 10:26:54;;;;;;;;;;;;;;;1.15;40.91;100795.78;4863723;29;19988;-63
2022/03/15 10:29:20;;;;;;;;;;;;;;;1.16;41.29;100804.44;4891341;29;19928;-63
2022/03/15 10:31:46;;;;;;;;;;;;;;;1.14;41.42;100807.19;4894114;29;19947;-63
2022/03/15 10:34:12;;;;;;;;;;;;;;;1.16;41.17;100807.88;4890520;29;19927;-63
2022/03/15 10:36:41;;;;;;;;;;;;;;;1.12;40.65;100802.09;4891007;29;19978;-63
2022/03/15 10:39:08;;;;;;;;;;;;;;;1.06;40.09;100807.06;4892620;29;19928;-62
2022/03/15 10:41:48;;;;;;;;;;;;;;;0.95;40.50;100815.88;4892641;29;20028;-62
2022/03/15 10:44:17;;;;;;;;;;;;;;;0.87;40.56;100811.34;4895170;29;19927;-60
2022/03/15 10:46:43;;;;;;;;;;;;;;;0.99;40.44;100805.97;4891001;29;20003;-59
2022/03/15 10:49:09;;;;;;;;;;;;;;;0.88;40.34;100804.34;4890817;29;19966;-62
2022/03/15 10:51:38;;;;;;;;;;;;;;;1.01;40.64;100802.28;4906221;29;20772;-62
2022/03/15 10:54:04;;;;;;;;;;;;;;;1.09;40.06;100791.13;4897546;29;19931;-63
2022/03/15 10:56:30;;;;;;;;;;;;;;;1.29;40.29;100786.66;4889638;29;19967;-62
2022/03/15 10:59:02;;;;;;;;;;;;;;;1.22;40.70;100793.41;4891312;29;19928;-62
2022/03/15 11:01:28;;;;;;;;;;;;;;;1.27;40.42;100788.59;4892341;29;19938;-61
2022/03/15 11:03:58;;;;;;;;;;;;;;;1.22;41.05;100796.03;4888325;29;19966;-63
2022/03/15 11:06:47;;;;;;;;;;;;;;;1.23;40.10;100787.22;4895806;29;19934;-62
2022/03/15 11:09:20;;;;;;;;;;;;;;;1.21;40.08;100795.22;4903342;29;19931;-62
2022/03/15 11:11:47;;;;;;;;;;;;;;;1.22;39.77;100791.63;4904885;29;19943;-60
2022/03/15 11:14:13;;;;;;;;;;;;;;;1.16;39.92;100788.75;4894786;29;19938;-62
2022/03/15 11:16:39;;;;;;;;;;;;;;;1.14;40.38;100791.50;4898019;29;19931;-61
2022/03/15 11:19:05;;;;;;;;;;;;;;;1.13;39.76;100797.69;4886047;29;19931;-61
2022/03/15 11:21:32;;;;;;;;;;;;;;;1.18;39.75;100802.47;4896382;29;20293;-62
2022/03/15 11:23:58;;;;;;;;;;;;;;;1.23;39.61;100785.44;4909866;29;19927;-62
2022/03/15 11:26:24;;;;;;;;;;;;;;;1.16;39.07;100794.81;4893450;29;19927;-65
2022/03/15 11:28:50;;;;;;;;;;;;;;;1.25;39.37;100785.31;4876220;29;19939;-63
2022/03/15 11:31:16;;;;;;;;;;;;;;;1.23;39.81;100785.44;4897682;29;19934;-63
2022/03/15 11:33:44;;;;;;;;;;;;;;;1.29;39.52;100782.25;4905135;29;20167;-63
2022/03/15 11:36:10;;;;;;;;;;;;;;;1.30;39.34;100791.75;4904740;29;19942;-64
2022/03/15 11:38:36;;;;;;;;;;;;;;;1.35;39.04;100776.47;4907486;29;19931;-64
2022/03/15 11:41:01;;;;;;;;;;;;;;;1.34;39.50;100779.22;4902971;29;19927;-64
2022/03/15 11:43:37;;;;;;;;;;;;;;;1.33;39.69;100774.97;4906985;29;20312;-64
2022/03/15 11:46:24;;;;;;;;;;;;;;;1.34;39.23;100769.59;4902809;29;19978;-64
2022/03/15 11:48:54;;;;;;;;;;;;;;;1.34;39.25;100761.75;4907596;29;19931;-65
2022/03/15 11:51:28;;;;;;;;;;;;;;;1.44;38.84;100756.50;4890995;29;19927;-62
2022/03/15 11:54:00;;;;;;;;;;;;;;;1.44;39.01;100769.56;4908498;29;19938;-62
2022/03/15 11:56:40;;;;;;;;;;;;;;;1.49;38.72;100763.88;4907624;29;19927;-63
2022/03/15 11:59:06;;;;;;;;;;;;;;;1.36;38.89;100764.22;4904314;29;19959;-62
2022/03/15 12:01:41;;;;;;;;;;;;;;;1.39;38.50;100771.78;4908857;29;20454;-62
2022/03/15 12:04:07;;;;;;;;;;;;;;;1.25;38.56;100762.59;4900554;29;19927;-61
2022/03/15 12:06:32;;;;;;;;;;;;;;;1.26;38.96;100766.84;4902046;29;19974;-62
2022/03/15 12:08:59;;;;;;;;;;;;;;;1.19;39.28;100764.97;4889448;29;20034;-63
2022/03/15 12:11:29;;;;;;;;;;;;;;;1.20;38.53;100766.63;4901067;29;19927;-63
2022/03/15 12:14:03;;;;;;;;;;;;;;;1.17;39.37;100762.50;4903642;29;20062;-62
2022/03/15 12:16:35;;;;;;;;;;;;;;;1.21;38.84;100757.81;4899678;29;19927;-61
2022/03/15 12:19:06;;;;;;;;;;;;;;;1.27;38.85;100762.47;4909455;29;20324;-61
2022/03/15 12:21:49;;;;;;;;;;;;;;;1.36;38.88;100756.38;4914932;29;19931;-62
2022/03/15 12:24:31;;;;;;;;;;;;;;;1.27;38.90;100758.06;4902501;29;19931;-64
2022/03/15 12:26:59;;;;;;;;;;;;;;;1.26;38.61;100756.41;4894088;29;19932;-63
2022/03/15 12:29:26;;;;;;;;;;;;;;;1.21;38.71;100768.28;4895520;29;19927;-62
2022/03/15 12:31:52;;;;;;;;;;;;;;;1.21;39.02;100760.44;4895863;29;19975;-61
2022/03/15 12:34:19;;;;;;;;;;;;;;;1.35;38.36;100770.41;4905721;29;19962;-59
2022/03/15 12:37:01;;;;;;;;;;;;;;;1.32;37.97;100768.06;4889227;29;19975;-60
2022/03/15 12:39:31;;;;;;;;;;;;;;;1.27;38.26;100768.53;4893449;29;19923;-60
2022/03/15 12:42:12;;;;;;;;;;;;;;;1.21;38.46;100769.09;4875836;29;19932;-62